• Join FlightAware (Why Join?)
  • Login
  • US Flag 
11:58PM EDT


 

Airport Tracker/Info


-or-


 

Live Flight TrackerFlight Track Log ✈ DAL1935 ✈ 19-Jan-2014 ✈ KLGA - KTPA

Flight Track Log - Related Links

Times and Time Zones

All times are in EST time to prevent confusion due to time zone crossing. See the DAL1935 flight status page for this flight to view local times or setup timezone preferences in your user account.

Time Position Orientation Groundspeed Altitude Reporting Facility
EST Latitude Longitude Course Direction KTS MPH feet Rate Location/Type
04:12PM 40.8333 -73.9167 227° Southwest 224 258 4,000  Level New York TRACON
04:13PM 40.8833 -73.9667 323° Northwest 233 268 7,900 3,720 Climbing New York TRACON
04:14PM 40.4588 -74.1312 242° Southwest  Level Estimated
04:14PM 40.8500 -74.0500 242° Southwest 238 274 11,500  Level New York TRACON
04:15PM 40.3525 -74.2169 252° West  Level Estimated
04:15PM 40.8167 -74.1333 242° Southwest 290 334 12,900  Level New York TRACON
04:16PM 40.2462 -74.3023 246° West  Level Estimated
04:16PM 40.7833 -74.2333 246° West 361 415 14,700  Level New York TRACON
04:17PM 40.1398 -74.3874 227° Southwest  Level Estimated
04:17PM 40.7333 -74.3500 241° Southwest 386 444 16,200  Level New York TRACON
04:19PM 40.6278 -74.5636 237° Southwest 397 457 17,100 1,200 Climbing New York Center
04:20PM 40.5675 -74.6833 236° Southwest 397 457 19,600 2,280 Climbing New York Center
04:21PM 40.5028 -74.8106 236° Southwest 403 464 21,700 1,800 Climbing New York Center
04:22PM 40.4381 -74.9375 236° Southwest 417 480 23,300 1,980 Climbing New York Center
04:23PM 40.3586 -75.0636 230° Southwest 437 503 25,700 2,100 Climbing New York Center
04:24PM 40.2750 -75.1781 226° Southwest 447 514 27,500 1,740 Climbing New York Center
04:25PM 40.1892 -75.3003 227° Southwest 453 521 29,200 1,320 Climbing New York Center
04:26PM 40.1053 -75.4169 227° Southwest 453 521 30,200 1,200 Climbing New York Center
04:27PM 40.0172 -75.5358 226° Southwest 453 521 31,700 900 Climbing New York Center
04:28PM 39.9375 -75.6522 228° Southwest 453 521 32,000 120 Climbing New York Center
04:29PM 39.8617 -75.7686 230° Southwest 440 506 32,000  Level New York Center
04:30PM 39.7919 -75.8881 233° Southwest 430 495 32,000  Level New York Center
04:31PM 39.7181 -76.0042 230° Southwest 430 495 32,000  Level New York Center
04:32PM 39.6439 -76.1200 230° Southwest 430 495 32,000  Level New York Center
04:33PM 39.5747 -76.2197 228° Southwest 430 495 32,000  Level New York Center
04:34PM 39.4694 -76.3844 230° Southwest 406 467 32,000  Level Washington Center
04:35PM 39.3956 -76.5019 231° Southwest 406 467 32,000  Level Washington Center
04:36PM 39.3261 -76.6003 228° Southwest 411 473 32,000  Level Washington Center
04:37PM 39.2542 -76.7147 231° Southwest 416 479 32,000  Level Washington Center
04:38PM 39.1800 -76.8314 231° Southwest 421 484 32,000  Level Washington Center
04:39PM 39.1081 -76.9478 231° Southwest 421 484 32,000  Level Washington Center
04:40PM 39.0317 -77.0586 228° Southwest 421 484 32,000  Level Washington Center
04:41PM 38.9408 -77.1528 219° Southwest 421 484 32,000  Level Washington Center
04:42PM 38.8519 -77.2522 221° Southwest 426 490 32,000  Level Washington Center
04:43PM 38.7544 -77.3592 221° Southwest 426 490 32,000  Level Washington Center
04:44PM 38.6656 -77.4556 220° Southwest 426 490 32,000  Level Washington Center
04:45PM 38.5742 -77.5542 220° Southwest 431 496 32,000  Level Washington Center
04:46PM 38.4850 -77.6525 221° Southwest 436 502 32,000  Level Washington Center
04:47PM 38.3958 -77.7481 220° Southwest 436 502 32,000  Level Washington Center
04:48PM 38.3044 -77.8461 220° Southwest 436 502 32,000  Level Washington Center
04:49PM 38.2150 -77.9439 221° Southwest 436 502 32,000  Level Washington Center
04:50PM 38.1233 -78.0411 220° Southwest 436 502 32,000  Level Washington Center
04:51PM 38.0317 -78.1331 218° Southwest 436 502 32,000  Level Washington Center
04:52PM 37.9442 -78.2250 220° Southwest 431 496 32,000  Level Washington Center
04:53PM 37.8461 -78.3161 216° Southwest 431 496 32,000  Level Washington Center
04:54PM 37.7503 -78.4047 216° Southwest 431 496 32,000  Level Washington Center
04:55PM 37.6542 -78.4956 217° Southwest 436 502 32,000  Level Washington Center
04:56PM 37.5647 -78.5786 216° Southwest 441 507 32,000  Level Washington Center
04:57PM 37.4706 -78.6692 217° Southwest 441 507 32,000  Level Washington Center
04:58PM 37.3744 -78.7592 217° Southwest 441 507 32,000  Level Washington Center
04:59PM 37.2781 -78.8467 216° Southwest 441 507 32,000  Level Washington Center
05:00PM 37.1797 -78.9364 216° Southwest 441 507 32,000  Level Washington Center
05:01PM 37.0833 -79.0258 217° Southwest 441 507 32,000  Level Washington Center
05:02PM 36.9781 -79.1278 218° Southwest 441 507 32,000  Level Washington Center
05:03PM 36.8794 -79.2142 215° Southwest 441 507 32,000  Level Washington Center
05:04PM 36.7808 -79.3056 217° Southwest 441 507 32,000  Level Washington Center
05:05PM 36.6842 -79.3942 216° Southwest 441 507 32,000  Level Washington Center
05:06PM 36.5872 -79.4825 216° Southwest 441 507 32,000  Level Washington Center
05:07PM 36.4992 -79.5633 216° Southwest 441 507 32,000  Level Washington Center
05:08PM 36.4022 -79.6514 216° Southwest 441 507 32,000  Level Washington Center
05:09PM 36.2967 -79.7464 216° Southwest 441 507 32,000  Level Washington Center
05:11PM 36.1303 -79.8947 216° Southwest 436 502 32,000  Level Atlanta Center
05:12PM 36.0308 -79.9794 215° Southwest 436 502 32,000  Level Atlanta Center
05:13PM 35.9261 -80.0281 201° Southwest 436 502 32,000  Level Atlanta Center
05:14PM 35.8111 -80.0875 203° Southwest 442 509 32,000  Level Atlanta Center
05:15PM 35.6961 -80.1469 203° Southwest 447 514 32,000  Level Atlanta Center
05:16PM 35.5689 -80.2142 203° Southwest 447 514 32,000  Level Atlanta Center
05:17PM 35.4497 -80.2733 202° Southwest 447 514 32,000  Level Atlanta Center
05:18PM 35.3347 -80.3319 203° Southwest 453 521 32,000  Level Atlanta Center
05:19PM 35.2175 -80.3906 202° Southwest 453 521 32,000  Level Atlanta Center
05:20PM 35.1025 -80.4492 203° Southwest 453 521 32,000  Level Atlanta Center
05:22PM 34.8911 -80.5514 202° Southwest 452 520 32,000  Level Jacksonville Center
05:23PM 34.7714 -80.6128 203° Southwest 452 520 32,000  Level Jacksonville Center
05:24PM 34.6575 -80.6689 202° Southwest 446 513 32,000  Level Jacksonville Center
05:25PM 34.5439 -80.7222 201° Southwest 466 536 32,000  Level Jacksonville Center
05:26PM 34.4281 -80.7831 203° Southwest 472 543 32,000  Level Jacksonville Center
05:27PM 34.3122 -80.8411 202° Southwest 456 525 32,000  Level Jacksonville Center
05:28PM 34.1878 -80.8942 199° South 449 517 32,000  Level Jacksonville Center
05:29PM 34.0697 -80.9522 202° Southwest 449 517 32,000  Level Jacksonville Center
05:30PM 33.9494 -81.0050 200° South 449 517 32,000  Level Jacksonville Center
05:31PM 33.8439 -81.0522 200° South 449 517 32,000  Level Jacksonville Center
05:32PM 33.7175 -81.1147 202° Southwest 449 517 32,000  Level Jacksonville Center
05:33PM 33.6117 -81.1642 201° Southwest 449 517 32,000  Level Jacksonville Center
05:34PM 33.4956 -81.2164 201° Southwest 449 517 32,000  Level Jacksonville Center
05:35PM 33.3794 -81.2733 202° Southwest 449 517 32,000  Level Jacksonville Center
05:36PM 33.2611 -81.3250 200° South 449 517 32,000  Level Jacksonville Center
05:37PM 33.1428 -81.3817 202° Southwest 454 522 32,000  Level Jacksonville Center
05:38PM 33.0225 -81.4383 202° Southwest 454 522 32,000  Level Jacksonville Center
05:39PM 32.9019 -81.4872 199° South 454 522 32,000  Level Jacksonville Center
05:40PM 32.7750 -81.5239 194° South 460 529 32,000  Level Jacksonville Center
05:41PM 32.6458 -81.5603 193° South 471 542 32,000  Level Jacksonville Center
05:42PM 32.5044 -81.5969 192° South 471 542 32,000  Level Jacksonville Center
05:43PM 32.3775 -81.6331 194° South 471 542 32,000  Level Jacksonville Center
05:44PM 32.2483 -81.6692 193° South 471 542 32,000  Level Jacksonville Center
05:45PM 32.1192 -81.7053 193° South 471 542 32,000  Level Jacksonville Center
05:46PM 32.0067 -81.7361 193° South 471 542 32,000  Level Jacksonville Center
05:47PM 31.8650 -81.7747 193° South 476 548 32,000  Level Jacksonville Center
05:48PM 31.7506 -81.8031 192° South 470 541 32,000  Level Jacksonville Center
05:49PM 31.6108 -81.8386 192° South 470 541 32,000  Level Jacksonville Center
05:50PM 31.4839 -81.8742 193° South 475 547 32,000  Level Jacksonville Center
05:51PM 31.3525 -81.9072 192° South 470 541 32,000  Level Jacksonville Center
05:52PM 31.2275 -81.9428 194° South 470 541 32,000  Level Jacksonville Center
05:53PM 31.0983 -81.9731 191° South 470 541 32,000  Level Jacksonville Center
05:54PM 30.9711 -82.0058 192° South 470 541 32,000  Level Jacksonville Center
05:55PM 30.8442 -82.0408 193° South 470 541 32,000 -60 Level Jacksonville Center
05:56PM 30.7169 -82.0733 192° South 470 541 31,900  Descending Jacksonville Center
05:57PM 30.5878 -82.1058 192° South 470 541 32,000  Climbing Jacksonville Center
05:58PM 30.4625 -82.1311 190° South 470 541 32,000  Level Jacksonville Center
05:59PM 30.3375 -82.1658 193° South 470 541 32,000  Level Jacksonville Center
06:00PM 30.2125 -82.1978 192° South 470 541 32,000  Level Jacksonville Center
06:01PM 30.0853 -82.2300 192° South 470 541 32,000  Level Jacksonville Center
06:02PM 29.9644 -82.2644 194° South 465 535 32,000  Level Jacksonville Center
06:03PM 29.8372 -82.2989 193° South 465 535 32,000 -780 Level Jacksonville Center
06:04PM 29.7100 -82.3258 190° South 465 535 30,500 -2,700 Descending Jacksonville Center
06:05PM 29.5828 -82.3528 190° South 465 535 26,700 -3,240 Descending Jacksonville Center
06:06PM 29.4469 -82.3417 176° South 477 549 24,100 -2,340 Descending Jacksonville Center
06:07PM 29.3153 -82.3281 175° South 477 549 22,100 -1,080 Descending Jacksonville Center
06:08PM 29.1839 -82.3097 173° South 477 549 22,000 -720 Descending Jacksonville Center
06:09PM 29.0583 -82.2964 175° South 477 549 20,700 -2,100 Descending Jacksonville Center
06:10PM 28.9500 -82.2828 174° South 454 522 17,800 -2,760 Descending Jacksonville Center
06:11PM 28.7333 -82.2667 176° South 419 482 13,300 -2,340 Descending Tampa TRACON
06:12PM 28.6167 -82.2500 173° South 404 465 11,600 -1,200 Descending Tampa TRACON
06:13PM 28.5167 -82.2500 180° South 387 445 11,000 -300 Descending Tampa TRACON
06:14PM 28.4000 -82.2833 194° South 388 447 11,000 -120 Level Tampa TRACON
06:15PM 28.3000 -82.3167 196° South 387 445 10,800 -480 Descending Tampa TRACON
06:17PM 28.2000 -82.3500 196° South 313 360 10,100 -900 Descending Tampa TRACON
06:17PM 28.1167 -82.3667 190° South 286 329 9,000 -1,380 Descending Tampa TRACON
06:18PM 28.0500 -82.4000 204° Southwest 276 318 7,700 -1,500 Descending Tampa TRACON
06:19PM 28.0000 -82.4167 196° South 264 304 6,400 -2,100 Descending Tampa TRACON
06:20PM 27.9167 -82.4500 199° South 250 288 3,500 -2,160 Descending Tampa TRACON
06:21PM 27.8667 -82.4667 196° South 253 291 2,100 -900 Descending Tampa TRACON
06:22PM 27.8500 -82.5167 249° West 209 241 1,800 -360 Descending Tampa TRACON
06:23PM 27.8833 -82.5500 319° Northwest 176 203 1,400 -600 Descending Tampa TRACON
06:24PM 27.9333 -82.5500 360° North 135 155 600 -780 Descending Tampa TRACON